createdAt,value
2017-07-30T00:00:51.283Z,72.68
2017-07-30T00:01:53.178Z,72.68
2017-07-30T00:02:54.989Z,72.78
2017-07-30T00:03:56.793Z,72.68
2017-07-30T00:04:58.682Z,72.97
2017-07-30T00:06:00.550Z,72.49
2017-07-30T00:07:02.417Z,72.97
2017-07-30T00:08:16.559Z,72.78
2017-07-30T00:09:18.446Z,72.78
2017-07-30T00:10:20.322Z,72.39
2017-07-30T00:11:22.211Z,72.39
2017-07-30T00:12:24.019Z,72.68
2017-07-30T00:13:25.846Z,72.39
2017-07-30T00:14:27.717Z,72.59
2017-07-30T00:15:29.604Z,72.59
2017-07-30T00:16:31.475Z,72.39
2017-07-30T00:17:45.643Z,72.59
2017-07-30T00:18:47.535Z,72.68
2017-07-30T00:19:49.401Z,72.39
2017-07-30T00:20:51.295Z,72.39
2017-07-30T00:21:53.127Z,72.39
2017-07-30T00:22:54.953Z,72.59
2017-07-30T00:23:56.827Z,72.78
2017-07-30T00:24:58.716Z,72.94
2017-07-30T00:26:00.585Z,73.42
2017-07-30T00:27:14.724Z,73.32
2017-07-30T00:28:16.616Z,73.32
2017-07-30T00:29:18.501Z,72.84
2017-07-30T00:30:20.367Z,73.03
2017-07-30T00:31:22.172Z,73.32
2017-07-30T00:32:23.982Z,73.22
2017-07-30T00:33:25.877Z,73.32
2017-07-30T00:34:27.764Z,73.03
2017-07-30T00:35:29.633Z,73.32
2017-07-30T00:36:43.771Z,72.94
2017-07-30T00:37:45.652Z,73.22
2017-07-30T00:38:47.520Z,73.61
2017-07-30T00:39:49.418Z,73.61
2017-07-30T00:40:51.242Z,73.80
2017-07-30T00:41:53.044Z,73.71
2017-07-30T00:42:54.915Z,73.90
2017-07-30T00:43:56.788Z,73.90
2017-07-30T00:44:58.676Z,73.90
2017-07-30T00:46:12.817Z,73.80
2017-07-30T00:47:14.709Z,73.80
2017-07-30T00:48:16.600Z,73.80
2017-07-30T00:49:18.490Z,73.80
2017-07-30T00:50:20.302Z,73.71
2017-07-30T00:51:22.128Z,73.51
2017-07-30T00:52:23.999Z,73.71
2017-07-30T00:53:25.884Z,73.71
2017-07-30T00:54:27.755Z,74.29
2017-07-30T00:55:41.969Z,74.09
2017-07-30T00:56:43.856Z,74.29
2017-07-30T00:57:45.730Z,74.09
2017-07-30T00:58:47.615Z,73.90
2017-07-30T00:59:49.425Z,74.29
2017-07-30T01:00:51.259Z,74.44
2017-07-30T01:01:53.119Z,73.86
2017-07-30T01:02:54.984Z,74.29
2017-07-30T01:03:56.849Z,74.54
2017-07-30T01:05:11.037Z,74.29
2017-07-30T01:06:12.905Z,74.44
2017-07-30T01:07:14.795Z,74.48
2017-07-30T01:08:16.685Z,74.48
2017-07-30T01:09:18.496Z,74.57
2017-07-30T01:10:20.321Z,74.38
2017-07-30T01:11:22.189Z,74.48
2017-07-30T01:12:24.057Z,74.38
2017-07-30T01:13:25.950Z,74.44
2017-07-30T01:14:40.115Z,74.25
2017-07-30T01:15:41.982Z,73.96
2017-07-30T01:16:43.851Z,75.11
2017-07-30T01:17:45.723Z,74.34
2017-07-30T01:18:47.544Z,74.54
2017-07-30T01:19:49.354Z,74.29
2017-07-30T01:20:51.224Z,74.25
2017-07-30T01:21:53.122Z,73.96
2017-07-30T01:22:54.980Z,74.05
2017-07-30T01:24:09.125Z,74.25
2017-07-30T01:25:11.004Z,74.34
2017-07-30T01:26:12.861Z,75.11
2017-07-30T01:27:14.753Z,74.82
2017-07-30T01:28:16.583Z,74.73
2017-07-30T01:29:18.414Z,74.54
2017-07-30T01:30:20.277Z,74.73
2017-07-30T01:31:22.146Z,75.02
2017-07-30T01:32:24.012Z,74.73
2017-07-30T01:33:38.153Z,75.02
2017-07-30T01:34:40.023Z,74.82
2017-07-30T01:35:41.892Z,75.02
2017-07-30T01:36:43.753Z,74.92
2017-07-30T01:37:45.560Z,74.73
2017-07-30T01:38:47.390Z,74.63
2017-07-30T01:39:49.257Z,75.11
2017-07-30T01:40:51.130Z,75.11
2017-07-30T01:41:53.014Z,75.02
2017-07-30T01:43:07.163Z,74.82
2017-07-30T01:44:09.055Z,75.49
2017-07-30T01:45:10.925Z,75.17
2017-07-30T01:46:12.794Z,75.07
2017-07-30T01:47:14.602Z,75.11
2017-07-30T01:48:16.417Z,75.17
2017-07-30T01:49:18.241Z,75.21
2017-07-30T01:50:20.070Z,74.98
2017-07-30T01:51:21.895Z,74.98
2017-07-30T01:52:36.074Z,75.07
2017-07-30T01:53:37.931Z,75.17
2017-07-30T01:54:39.822Z,75.46
2017-07-30T01:55:41.713Z,75.46
2017-07-30T01:56:43.539Z,75.37
2017-07-30T01:57:45.347Z,75.17
2017-07-30T01:58:47.235Z,75.65
2017-07-30T01:59:49.103Z,75.84
2017-07-30T02:00:50.970Z,75.84
2017-07-30T02:02:05.117Z,75.84
2017-07-30T02:03:07.009Z,76.14
2017-07-30T02:04:08.900Z,75.84
2017-07-30T02:05:10.786Z,75.75
2017-07-30T02:06:12.596Z,76.42
2017-07-30T02:07:14.406Z,76.42
2017-07-30T02:08:16.268Z,76.32
2017-07-30T02:09:18.141Z,76.42
2017-07-30T02:10:20.035Z,76.23
2017-07-30T02:11:34.203Z,76.04
2017-07-30T02:12:36.092Z,76.32
2017-07-30T02:13:37.962Z,76.14
2017-07-30T02:14:39.836Z,76.04
2017-07-30T02:15:41.667Z,76.32
2017-07-30T02:16:43.465Z,76.04
2017-07-30T02:17:45.337Z,76.52
2017-07-30T02:18:47.228Z,76.23
2017-07-30T02:19:49.095Z,76.32
2017-07-30T02:21:03.262Z,76.23
2017-07-30T02:22:05.155Z,76.52
2017-07-30T02:23:07.029Z,76.52
2017-07-30T02:24:08.899Z,76.42
2017-07-30T02:25:10.729Z,76.32
2017-07-30T02:26:12.534Z,76.42
2017-07-30T02:27:14.399Z,75.84
2017-07-30T02:28:16.263Z,75.98
2017-07-30T02:29:18.139Z,75.46
2017-07-30T02:30:32.301Z,75.49
2017-07-30T02:31:34.173Z,75.49
2017-07-30T02:32:36.040Z,75.46
2017-07-30T02:33:37.902Z,75.56
2017-07-30T02:34:39.711Z,75.56
2017-07-30T02:35:41.522Z,75.56
2017-07-30T02:36:43.403Z,75.56
2017-07-30T02:37:45.280Z,75.65
2017-07-30T02:38:47.144Z,75.75
2017-07-30T02:40:01.281Z,75.65
2017-07-30T02:41:03.154Z,75.65
2017-07-30T02:42:05.048Z,75.46
2017-07-30T02:43:06.941Z,75.07
2017-07-30T02:44:08.770Z,75.31
2017-07-30T02:45:10.578Z,75.02
2017-07-30T02:46:12.467Z,75.40
2017-07-30T02:47:14.332Z,74.92
2017-07-30T02:48:16.206Z,74.63
2017-07-30T02:49:30.351Z,74.38
2017-07-30T02:50:32.240Z,74.29
2017-07-30T02:51:34.110Z,74.09
2017-07-30T02:52:35.985Z,73.99
2017-07-30T02:53:37.817Z,73.90
2017-07-30T02:54:39.644Z,73.42
2017-07-30T02:55:41.532Z,73.26
2017-07-30T02:56:43.410Z,73.26
2017-07-30T02:57:45.278Z,72.88
2017-07-30T02:58:59.419Z,72.78
2017-07-30T03:00:01.294Z,72.97
2017-07-30T03:01:03.189Z,72.59
2017-07-30T03:02:05.081Z,72.88
2017-07-30T03:03:06.910Z,72.30
2017-07-30T03:04:08.715Z,72.11
2017-07-30T03:05:10.588Z,72.11
2017-07-30T03:06:12.485Z,72.05
2017-07-30T03:07:14.378Z,71.91
2017-07-30T03:08:28.547Z,71.85
2017-07-30T03:09:30.411Z,71.47
2017-07-30T03:10:32.285Z,71.18
2017-07-30T03:11:34.177Z,71.47
2017-07-30T03:12:36.013Z,71.47
2017-07-30T03:13:37.841Z,71.66
2017-07-30T03:14:39.711Z,71.18
2017-07-30T03:15:41.606Z,70.98
2017-07-30T03:16:43.495Z,70.98
2017-07-30T03:17:57.639Z,71.08
2017-07-30T03:18:59.514Z,70.79
2017-07-30T03:20:01.406Z,70.60
2017-07-30T03:21:03.276Z,70.21
2017-07-30T03:22:05.089Z,70.15
2017-07-30T03:23:06.921Z,70.25
2017-07-30T03:24:08.817Z,70.06
2017-07-30T03:25:10.688Z,69.87
2017-07-30T03:26:12.581Z,69.57
2017-07-30T03:27:26.729Z,69.77
2017-07-30T03:28:28.593Z,69.96
2017-07-30T03:29:30.470Z,69.87
2017-07-30T03:30:32.363Z,69.67
2017-07-30T03:31:34.200Z,69.38
2017-07-30T03:32:36.037Z,68.99
2017-07-30T03:33:37.927Z,68.80
2017-07-30T03:34:39.832Z,68.52
2017-07-30T03:35:41.713Z,68.35
2017-07-30T03:36:55.862Z,67.97
2017-07-30T03:37:57.736Z,67.30
2017-07-30T03:38:59.606Z,67.49
2017-07-30T03:40:01.503Z,66.94
2017-07-30T03:41:03.333Z,66.94
2017-07-30T03:42:05.150Z,66.27
2017-07-30T03:43:07.022Z,65.78
2017-07-30T03:44:08.921Z,65.72
2017-07-30T03:45:10.790Z,65.05
2017-07-30T03:46:24.938Z,64.18
2017-07-30T03:47:26.813Z,63.92
2017-07-30T03:48:28.678Z,63.15
2017-07-30T03:49:30.552Z,62.70
2017-07-30T03:50:32.398Z,63.08
2017-07-30T03:51:34.237Z,62.31
2017-07-30T03:52:36.126Z,62.60
2017-07-30T03:53:38.005Z,62.05
2017-07-30T03:54:39.896Z,62.05
2017-07-30T03:55:54.049Z,61.40
2017-07-30T03:56:55.924Z,60.63
2017-07-30T03:57:57.819Z,60.53
2017-07-30T03:58:59.694Z,60.44
2017-07-30T04:00:01.503Z,60.34
2017-07-30T04:01:03.321Z,60.08
2017-07-30T04:02:05.220Z,59.40
2017-07-30T04:03:07.118Z,58.92
2017-07-30T04:04:08.991Z,58.65
2017-07-30T04:05:23.157Z,57.88
2017-07-30T04:06:25.038Z,57.43
2017-07-30T04:07:26.909Z,56.59
2017-07-30T04:08:28.782Z,55.71
2017-07-30T04:09:30.597Z,55.52
2017-07-30T04:10:32.436Z,55.16
2017-07-30T04:11:34.328Z,55.26
2017-07-30T04:12:36.206Z,55.16
2017-07-30T04:13:38.105Z,55.35
2017-07-30T04:14:52.275Z,55.26
2017-07-30T04:15:54.153Z,54.31
2017-07-30T04:16:56.032Z,53.73
2017-07-30T04:17:57.901Z,53.56
2017-07-30T04:18:59.716Z,52.98
2017-07-30T04:20:01.531Z,52.69
2017-07-30T04:21:03.405Z,52.62
2017-07-30T04:22:05.281Z,52.03
2017-07-30T04:23:07.184Z,52.23
2017-07-30T04:24:21.362Z,51.77
2017-07-30T04:25:23.267Z,50.99
2017-07-30T04:26:25.139Z,51.11
2017-07-30T04:27:27.019Z,50.43
2017-07-30T04:28:28.857Z,49.87
2017-07-30T04:29:30.692Z,49.68
2017-07-30T04:30:32.568Z,48.90
2017-07-30T04:31:34.448Z,48.32
2017-07-30T04:32:36.348Z,48.51
2017-07-30T04:33:50.504Z,48.90
2017-07-30T04:34:52.404Z,48.71
2017-07-30T04:35:54.286Z,48.41
2017-07-30T04:36:56.183Z,48.41
2017-07-30T04:37:57.999Z,48.80
2017-07-30T04:38:59.818Z,48.22
2017-07-30T04:40:01.686Z,48.44
2017-07-30T04:41:03.566Z,47.98
2017-07-30T04:42:05.446Z,47.10
2017-07-30T04:43:19.621Z,46.64
2017-07-30T04:44:21.502Z,46.17
2017-07-30T04:45:23.377Z,45.49
2017-07-30T04:46:25.252Z,45.57
2017-07-30T04:47:27.060Z,45.28
2017-07-30T04:48:28.880Z,45.59
2017-07-30T04:49:30.762Z,45.37
2017-07-30T04:50:32.661Z,45.67
2017-07-30T04:51:34.543Z,45.59
2017-07-30T04:52:48.694Z,45.29
2017-07-30T04:53:50.591Z,44.52
2017-07-30T04:54:52.493Z,44.89
2017-07-30T04:55:54.392Z,45.35
2017-07-30T04:56:56.231Z,45.25
2017-07-30T04:57:58.049Z,46.50
2017-07-30T04:58:59.952Z,47.05
2017-07-30T05:00:01.833Z,47.44
2017-07-30T05:01:03.733Z,47.74
2017-07-30T05:02:17.958Z,47.76
2017-07-30T05:03:19.839Z,47.59
2017-07-30T05:04:21.739Z,46.51
2017-07-30T05:05:23.618Z,46.03
2017-07-30T05:06:25.461Z,45.86
2017-07-30T05:07:27.302Z,45.76
2017-07-30T05:08:29.205Z,45.57
2017-07-30T05:09:31.086Z,45.39
2017-07-30T05:10:32.991Z,45.00
2017-07-30T05:11:47.167Z,44.52
2017-07-30T05:12:49.043Z,44.42
2017-07-30T05:13:50.925Z,44.52
2017-07-30T05:14:52.823Z,44.44
2017-07-30T05:15:54.640Z,44.24
2017-07-30T05:16:56.497Z,44.44
2017-07-30T05:17:58.359Z,44.24
2017-07-30T05:19:00.262Z,44.07
2017-07-30T05:20:02.164Z,44.34
2017-07-30T05:21:16.338Z,44.37
2017-07-30T05:22:18.215Z,44.44
2017-07-30T05:23:20.091Z,44.64
2017-07-30T05:24:21.986Z,44.54
2017-07-30T05:25:23.800Z,44.83
2017-07-30T05:26:25.619Z,44.62
2017-07-30T05:27:27.520Z,45.28
2017-07-30T05:28:29.422Z,45.76
2017-07-30T05:29:31.315Z,45.76
2017-07-30T05:30:45.487Z,46.13
2017-07-30T05:31:47.389Z,46.78
2017-07-30T05:32:49.291Z,47.44
2017-07-30T05:33:51.192Z,47.93
2017-07-30T05:34:53.006Z,48.10
2017-07-30T05:35:54.817Z,48.68
2017-07-30T05:36:56.695Z,48.68
2017-07-30T05:37:58.569Z,49.54
2017-07-30T05:39:00.442Z,49.34
2017-07-30T05:40:14.594Z,50.02
2017-07-30T05:41:16.469Z,49.90
2017-07-30T05:42:18.344Z,50.48
2017-07-30T05:43:20.246Z,50.48
2017-07-30T05:44:22.055Z,50.96
2017-07-30T05:45:23.875Z,50.96
2017-07-30T05:46:25.767Z,51.55
2017-07-30T05:47:27.647Z,51.72
2017-07-30T05:48:29.526Z,52.50
2017-07-30T05:49:43.672Z,52.69
2017-07-30T05:50:45.550Z,53.27
2017-07-30T05:51:47.451Z,54.02
2017-07-30T05:52:49.321Z,54.60
2017-07-30T05:53:51.136Z,54.38
2017-07-30T05:54:52.958Z,54.48
2017-07-30T05:55:54.854Z,54.96
2017-07-30T05:56:56.754Z,54.96
2017-07-30T05:57:58.630Z,55.16
2017-07-30T05:59:12.809Z,55.16
2017-07-30T06:00:14.709Z,54.96
2017-07-30T06:01:16.609Z,55.16
2017-07-30T06:02:18.507Z,55.44
2017-07-30T06:03:20.322Z,55.42
2017-07-30T06:04:22.153Z,55.62
2017-07-30T06:05:23.991Z,55.71
2017-07-30T06:06:25.870Z,55.62
2017-07-30T06:07:27.768Z,55.71
2017-07-30T06:08:41.968Z,56.00
2017-07-30T06:09:43.843Z,56.00
2017-07-30T06:10:45.721Z,56.10
2017-07-30T06:11:47.594Z,56.00
2017-07-30T06:12:49.411Z,55.71
2017-07-30T06:13:51.229Z,55.52
2017-07-30T06:14:53.103Z,56.10
2017-07-30T06:15:55.003Z,56.36
2017-07-30T06:16:56.906Z,56.26
2017-07-30T06:18:11.052Z,56.75
2017-07-30T06:19:12.950Z,56.36
2017-07-30T06:20:14.835Z,56.46
2017-07-30T06:21:16.712Z,56.85
2017-07-30T06:22:18.547Z,57.23
2017-07-30T06:23:20.358Z,57.71
2017-07-30T06:24:22.238Z,57.33
2017-07-30T06:25:24.111Z,57.23
2017-07-30T06:26:25.991Z,57.23
2017-07-30T06:27:40.134Z,57.33
2017-07-30T06:28:42.010Z,57.45
2017-07-30T06:29:43.888Z,56.75
2017-07-30T06:30:45.785Z,56.65
2017-07-30T06:31:47.602Z,57.04
2017-07-30T06:32:49.443Z,57.14
2017-07-30T06:33:51.341Z,56.75
2017-07-30T06:34:53.222Z,56.65
2017-07-30T06:35:55.115Z,56.87
2017-07-30T06:37:09.270Z,57.14
2017-07-30T06:38:11.163Z,56.87
2017-07-30T06:39:13.042Z,56.77
2017-07-30T06:40:14.913Z,56.39
2017-07-30T06:41:16.728Z,56.10
2017-07-30T06:42:18.562Z,55.81
2017-07-30T06:43:20.438Z,56.00
2017-07-30T06:44:22.316Z,56.29
2017-07-30T06:45:24.213Z,56.49
2017-07-30T06:46:38.390Z,56.29
2017-07-30T06:47:40.293Z,55.81
2017-07-30T06:48:42.187Z,56.39
2017-07-30T06:49:44.067Z,56.97
2017-07-30T06:50:45.903Z,56.51
2017-07-30T06:51:47.741Z,56.13
2017-07-30T06:52:49.619Z,55.64
2017-07-30T06:53:51.516Z,56.03
2017-07-30T06:54:53.390Z,55.74
2017-07-30T06:56:07.539Z,55.54
2017-07-30T06:57:09.446Z,55.54
2017-07-30T06:58:11.343Z,55.44
2017-07-30T06:59:13.220Z,55.83
2017-07-30T07:00:15.059Z,55.54
2017-07-30T07:01:16.869Z,56.32
2017-07-30T07:02:18.747Z,56.00
2017-07-30T07:03:20.646Z,56.59
2017-07-30T07:04:22.560Z,56.68
2017-07-30T07:05:36.734Z,56.23
2017-07-30T07:06:38.637Z,55.93
2017-07-30T07:07:40.539Z,56.32
2017-07-30T07:08:42.420Z,55.64
2017-07-30T07:09:44.256Z,55.93
2017-07-30T07:10:46.223Z,55.44
2017-07-30T07:11:48.122Z,55.44
2017-07-30T07:12:49.999Z,55.64
2017-07-30T07:13:51.894Z,55.93
2017-07-30T07:15:06.041Z,55.83
2017-07-30T07:16:07.919Z,56.23
2017-07-30T07:17:09.793Z,55.64
2017-07-30T07:18:11.665Z,55.35
2017-07-30T07:19:13.480Z,55.44
2017-07-30T07:20:15.295Z,55.35
2017-07-30T07:21:17.195Z,55.38
2017-07-30T07:22:19.067Z,55.16
2017-07-30T07:23:20.946Z,55.18
2017-07-30T07:24:35.100Z,55.57
2017-07-30T07:25:37.004Z,55.47
2017-07-30T07:26:38.900Z,55.18
2017-07-30T07:27:40.781Z,55.47
2017-07-30T07:28:42.618Z,55.18
2017-07-30T07:29:44.458Z,55.38
2017-07-30T07:30:46.358Z,55.41
2017-07-30T07:31:48.239Z,55.47
2017-07-30T07:32:50.129Z,55.67
2017-07-30T07:34:04.283Z,55.79
2017-07-30T07:35:06.186Z,55.28
2017-07-30T07:36:08.061Z,55.31
2017-07-30T07:37:09.958Z,55.41
2017-07-30T07:38:11.798Z,55.21
2017-07-30T07:39:13.637Z,55.69
2017-07-30T07:40:15.564Z,55.69
2017-07-30T07:41:17.420Z,55.50
2017-07-30T07:42:19.318Z,55.69
2017-07-30T07:43:33.496Z,55.60
2017-07-30T07:44:35.395Z,55.31
2017-07-30T07:45:37.301Z,55.50
2017-07-30T07:46:39.201Z,55.50
2017-07-30T07:47:41.038Z,55.21
2017-07-30T07:48:42.879Z,55.21
2017-07-30T07:49:44.774Z,55.41
2017-07-30T07:50:46.656Z,55.50
2017-07-30T07:51:48.531Z,55.31
2017-07-30T07:53:02.710Z,55.50
2017-07-30T07:54:04.603Z,55.31
2017-07-30T07:55:06.485Z,55.41
2017-07-30T07:56:08.358Z,55.50
2017-07-30T07:57:10.172Z,55.41
2017-07-30T07:58:11.990Z,55.41
2017-07-30T07:59:13.887Z,55.41
2017-07-30T08:00:15.770Z,55.41
2017-07-30T08:01:17.666Z,55.50
2017-07-30T08:02:31.894Z,55.21
2017-07-30T08:03:33.796Z,55.73
2017-07-30T08:04:35.670Z,55.11
2017-07-30T08:05:37.548Z,54.92
2017-07-30T08:06:39.381Z,55.21
2017-07-30T08:07:41.201Z,55.31
2017-07-30T08:08:43.080Z,55.24
2017-07-30T08:09:44.979Z,54.56
2017-07-30T08:10:46.881Z,54.46
2017-07-30T08:12:01.056Z,54.66
2017-07-30T08:13:02.929Z,54.66
2017-07-30T08:14:04.808Z,54.66
2017-07-30T08:15:06.717Z,54.56
2017-07-30T08:16:08.550Z,54.75
2017-07-30T08:17:10.368Z,54.66
2017-07-30T08:18:12.269Z,54.66
2017-07-30T08:19:14.171Z,54.56
2017-07-30T08:20:16.068Z,54.75
2017-07-30T08:21:30.240Z,54.46
2017-07-30T08:22:32.118Z,54.46
2017-07-30T08:23:34.078Z,54.27
2017-07-30T08:24:35.927Z,54.17
2017-07-30T08:25:37.776Z,54.46
2017-07-30T08:26:39.599Z,54.85
2017-07-30T08:27:41.519Z,54.66
2017-07-30T08:28:43.399Z,54.39
2017-07-30T08:29:45.258Z,54.46
2017-07-30T08:30:59.414Z,54.36
2017-07-30T08:32:01.316Z,54.46
2017-07-30T08:33:03.190Z,54.58
2017-07-30T08:34:05.068Z,54.49
2017-07-30T08:35:06.902Z,54.46
2017-07-30T08:36:08.722Z,54.20
2017-07-30T08:37:10.596Z,53.91
2017-07-30T08:38:12.479Z,54.29
2017-07-30T08:39:14.376Z,54.20
2017-07-30T08:40:28.552Z,54.00
2017-07-30T08:41:30.451Z,53.81
2017-07-30T08:42:32.353Z,54.03
2017-07-30T08:43:34.256Z,54.29
2017-07-30T08:44:36.097Z,53.54
2017-07-30T08:45:37.937Z,53.93
2017-07-30T08:46:39.808Z,53.61
2017-07-30T08:47:41.688Z,53.52
2017-07-30T08:48:43.566Z,54.20
2017-07-30T08:49:57.743Z,54.00
2017-07-30T08:50:59.613Z,54.29
2017-07-30T08:52:01.497Z,54.20
2017-07-30T08:53:03.404Z,54.32
2017-07-30T08:54:05.222Z,53.83
2017-07-30T08:55:07.065Z,54.32
2017-07-30T08:56:08.965Z,54.32
2017-07-30T08:57:10.852Z,54.29
2017-07-30T08:58:12.745Z,53.91
2017-07-30T08:59:26.924Z,54.10
2017-07-30T09:00:28.799Z,54.10
2017-07-30T09:01:30.696Z,54.39
2017-07-30T09:02:32.568Z,54.10
2017-07-30T09:03:34.384Z,54.03
2017-07-30T09:04:36.195Z,54.61
2017-07-30T09:05:38.087Z,54.32
2017-07-30T09:06:39.995Z,54.32
2017-07-30T09:07:41.879Z,54.13
2017-07-30T09:08:56.052Z,53.54
2017-07-30T09:09:57.955Z,53.35
2017-07-30T09:10:59.856Z,53.64
2017-07-30T09:12:01.730Z,53.25
2017-07-30T09:13:03.551Z,53.74
2017-07-30T09:14:05.395Z,53.61
2017-07-30T09:15:07.298Z,53.91
2017-07-30T09:16:09.198Z,53.74
2017-07-30T09:17:11.076Z,53.64
2017-07-30T09:18:25.252Z,54.10
2017-07-30T09:19:27.182Z,53.61
2017-07-30T09:20:29.080Z,54.00
2017-07-30T09:21:30.953Z,54.29
2017-07-30T09:22:32.769Z,53.52
2017-07-30T09:23:34.606Z,53.61
2017-07-30T09:24:36.506Z,53.93
2017-07-30T09:25:38.388Z,53.25
2017-07-30T09:26:40.284Z,53.06
2017-07-30T09:27:54.438Z,52.37
2017-07-30T09:28:56.345Z,52.57
2017-07-30T09:29:58.248Z,52.31
2017-07-30T09:31:00.140Z,51.92
2017-07-30T09:32:01.965Z,51.92
2017-07-30T09:33:03.770Z,52.11
2017-07-30T09:34:05.649Z,52.11
2017-07-30T09:35:07.546Z,52.01
2017-07-30T09:36:09.422Z,52.04
2017-07-30T09:37:23.601Z,51.94
2017-07-30T09:38:25.502Z,52.04
2017-07-30T09:39:27.381Z,51.55
2017-07-30T09:40:29.281Z,52.04
2017-07-30T09:41:31.120Z,51.17
2017-07-30T09:42:32.938Z,51.17
2017-07-30T09:43:34.814Z,51.26
2017-07-30T09:44:36.701Z,51.17
2017-07-30T09:45:38.598Z,50.87
2017-07-30T09:46:52.781Z,50.87
2017-07-30T09:47:54.677Z,51.07
2017-07-30T09:48:56.579Z,51.17
2017-07-30T09:49:58.489Z,50.99
2017-07-30T09:51:00.323Z,50.90
2017-07-30T09:52:02.141Z,50.90
2017-07-30T09:53:04.021Z,50.90
2017-07-30T09:54:05.902Z,50.90
2017-07-30T09:55:07.798Z,50.80
2017-07-30T09:56:21.953Z,50.70
2017-07-30T09:57:23.827Z,50.60
2017-07-30T09:58:25.701Z,50.41
2017-07-30T09:59:27.575Z,50.90
2017-07-30T10:00:29.395Z,49.73
2017-07-30T10:01:31.241Z,49.83
2017-07-30T10:02:33.140Z,50.02
2017-07-30T10:03:35.029Z,50.92
2017-07-30T10:04:36.913Z,50.51
2017-07-30T10:05:51.076Z,50.51
2017-07-30T10:06:52.979Z,50.92
2017-07-30T10:07:54.874Z,50.24
2017-07-30T10:08:56.757Z,50.41
2017-07-30T10:09:58.591Z,50.82
2017-07-30T10:11:00.408Z,50.24
2017-07-30T10:12:02.309Z,50.34
2017-07-30T10:13:04.190Z,50.14
2017-07-30T10:14:06.066Z,50.34
2017-07-30T10:15:20.220Z,50.14
2017-07-30T10:16:22.104Z,49.76
2017-07-30T10:17:24.008Z,50.34
2017-07-30T10:18:25.912Z,50.14
2017-07-30T10:19:27.747Z,50.43
2017-07-30T10:20:29.571Z,50.73
2017-07-30T10:21:31.468Z,50.14
2017-07-30T10:22:33.350Z,49.76
2017-07-30T10:23:35.250Z,49.95
2017-07-30T10:24:49.428Z,49.95
2017-07-30T10:25:51.322Z,49.85
2017-07-30T10:26:53.212Z,49.76
2017-07-30T10:27:55.105Z,49.76
2017-07-30T10:28:56.929Z,49.56
2017-07-30T10:29:58.793Z,49.56
2017-07-30T10:31:00.660Z,49.76
2017-07-30T10:32:02.559Z,49.46
2017-07-30T10:33:04.417Z,49.76
2017-07-30T10:34:18.589Z,49.56
2017-07-30T10:35:20.468Z,49.37
2017-07-30T10:36:22.370Z,49.46
2017-07-30T10:37:24.272Z,49.58
2017-07-30T10:38:26.115Z,49.39
2017-07-30T10:39:27.926Z,49.49
2017-07-30T10:40:29.803Z,49.10
2017-07-30T10:41:31.703Z,49.49
2017-07-30T10:42:33.584Z,49.78
2017-07-30T10:43:47.761Z,49.78
2017-07-30T11:08:03.335Z,53.28
2017-07-30T11:09:05.201Z,53.57
2017-07-30T11:10:07.087Z,53.64
2017-07-30T11:11:08.940Z,54.22
2017-07-30T11:12:10.757Z,53.93
2017-07-30T11:13:12.597Z,54.32
2017-07-30T11:14:14.493Z,54.61
2017-07-30T11:15:16.391Z,54.42
2017-07-30T11:16:18.262Z,54.52
2017-07-30T11:17:32.409Z,54.22
2017-07-30T11:18:34.285Z,54.13
2017-07-30T11:19:36.161Z,54.25
2017-07-30T11:20:38.058Z,53.47
2017-07-30T11:21:39.916Z,53.96
2017-07-30T11:22:41.742Z,53.20
2017-07-30T11:23:43.618Z,52.92
2017-07-30T11:24:45.495Z,52.92
2017-07-30T11:25:47.371Z,52.33
2017-07-30T11:27:01.592Z,52.06
2017-07-30T11:28:03.489Z,51.97
2017-07-30T11:29:05.372Z,52.06
2017-07-30T11:30:07.288Z,51.29
2017-07-30T11:31:09.104Z,51.21
2017-07-30T11:32:10.947Z,50.14
2017-07-30T11:33:12.925Z,49.46
2017-07-30T11:34:14.854Z,49.37
2017-07-30T11:35:16.731Z,48.97
2017-07-30T11:36:30.912Z,48.88
2017-07-30T11:37:32.786Z,49.37
2017-07-30T11:38:34.662Z,49.17
2017-07-30T11:39:36.599Z,49.29
2017-07-30T11:40:38.413Z,49.39
2017-07-30T11:41:40.256Z,49.10
2017-07-30T11:42:42.153Z,49.00
2017-07-30T11:43:44.030Z,49.00
2017-07-30T11:44:45.910Z,48.80
2017-07-30T11:46:00.084Z,48.24
2017-07-30T11:47:01.963Z,48.41
2017-07-30T11:48:03.865Z,48.44
2017-07-30T11:49:05.742Z,48.24
2017-07-30T11:50:07.583Z,48.24
2017-07-30T11:51:09.426Z,48.44
2017-07-30T11:52:11.327Z,48.63
2017-07-30T11:53:13.226Z,48.44
2017-07-30T11:54:15.127Z,48.44
2017-07-30T11:55:29.303Z,48.34
2017-07-30T11:56:31.183Z,48.24
2017-07-30T11:57:33.057Z,47.95
2017-07-30T11:58:34.966Z,48.05
2017-07-30T11:59:36.806Z,48.44
2017-07-30T12:00:38.645Z,47.56
2017-07-30T12:01:40.523Z,47.88
2017-07-30T12:02:42.399Z,47.66
2017-07-30T12:03:44.273Z,47.36
2017-07-30T12:04:58.429Z,47.36
2017-07-30T12:06:00.328Z,47.29
2017-07-30T12:07:02.208Z,47.68
2017-07-30T12:08:04.084Z,47.68
2017-07-30T12:09:05.922Z,47.68
2017-07-30T12:10:07.756Z,47.19
2017-07-30T12:11:09.619Z,46.80
2017-07-30T12:12:11.496Z,47.00
2017-07-30T12:13:13.393Z,47.19
2017-07-30T12:14:27.618Z,46.90
2017-07-30T12:15:29.520Z,47.19
2017-07-30T12:16:31.426Z,47.29
2017-07-30T12:17:33.325Z,47.29
2017-07-30T12:18:35.144Z,47.00
2017-07-30T12:19:36.960Z,47.09
2017-07-30T12:20:38.839Z,47.09
2017-07-30T12:21:40.745Z,46.97
2017-07-30T12:22:42.615Z,47.17
2017-07-30T12:23:56.767Z,47.17
2017-07-30T12:24:58.649Z,47.17
2017-07-30T12:26:00.547Z,46.78
2017-07-30T12:27:02.424Z,47.27
2017-07-30T12:28:04.235Z,47.27
2017-07-30T12:29:06.053Z,47.27
2017-07-30T12:30:07.934Z,47.17
2017-07-30T12:31:09.828Z,47.27
2017-07-30T12:32:11.710Z,47.36
2017-07-30T12:33:25.885Z,47.17
2017-07-30T12:34:27.765Z,47.66
2017-07-30T12:35:29.666Z,47.29
2017-07-30T12:36:31.539Z,47.78
2017-07-30T12:37:33.358Z,46.90
2017-07-30T12:38:35.196Z,47.22
2017-07-30T12:39:37.077Z,47.31
2017-07-30T12:40:38.982Z,47.02
2017-07-30T12:41:40.873Z,46.73
2017-07-30T12:42:55.035Z,46.44
2017-07-30T12:43:56.938Z,46.44
2017-07-30T12:44:58.839Z,46.14
2017-07-30T12:46:00.742Z,46.24
2017-07-30T12:47:02.581Z,46.14
2017-07-30T12:48:04.402Z,46.46
2017-07-30T12:49:06.299Z,46.17
2017-07-30T12:50:08.181Z,45.87
2017-07-30T12:51:10.053Z,45.78
2017-07-30T12:52:24.232Z,45.78
2017-07-30T12:53:26.129Z,45.58
2017-07-30T12:54:28.010Z,45.58
2017-07-30T12:55:29.890Z,45.68
2017-07-30T12:56:31.727Z,45.68
2017-07-30T12:57:33.572Z,45.48
2017-07-30T12:58:35.471Z,45.87
2017-07-30T12:59:37.354Z,45.78
2017-07-30T13:00:39.239Z,45.87
2017-07-30T13:01:53.393Z,45.58
2017-07-30T13:02:55.301Z,45.90
2017-07-30T13:03:57.172Z,45.61
2017-07-30T13:04:59.048Z,45.31
2017-07-30T13:06:00.914Z,45.51
2017-07-30T13:07:02.709Z,45.51
2017-07-30T13:08:04.614Z,45.61
2017-07-30T13:09:06.517Z,45.31
2017-07-30T13:10:08.418Z,45.41
2017-07-30T13:11:22.597Z,45.51
2017-07-30T13:12:24.493Z,45.21
2017-07-30T13:13:26.378Z,45.12
2017-07-30T13:14:28.255Z,45.61
2017-07-30T13:15:30.095Z,45.21
2017-07-30T13:16:31.935Z,45.31
2017-07-30T13:17:33.819Z,45.31
2017-07-30T13:18:35.696Z,45.61
2017-07-30T13:19:37.571Z,45.61
2017-07-30T13:20:51.744Z,45.43
2017-07-30T13:21:53.627Z,45.53
2017-07-30T13:22:55.530Z,45.43
2017-07-30T13:23:57.416Z,44.94
2017-07-30T13:24:59.224Z,44.84
2017-07-30T13:26:01.045Z,44.94
2017-07-30T13:27:02.950Z,44.84
2017-07-30T13:28:04.850Z,45.04
2017-07-30T13:29:06.720Z,44.94
2017-07-30T13:30:20.874Z,45.62
2017-07-30T13:31:22.756Z,45.33
2017-07-30T13:32:24.636Z,45.62
2017-07-30T13:33:26.540Z,45.33
2017-07-30T13:34:28.391Z,45.62
2017-07-30T13:35:30.202Z,45.82
2017-07-30T13:36:32.112Z,45.43
2017-07-30T13:37:34.012Z,45.33
2017-07-30T13:38:35.893Z,45.43
2017-07-30T13:39:50.075Z,45.53
2017-07-30T13:40:51.981Z,46.21
2017-07-30T13:41:53.895Z,46.60
2017-07-30T13:42:55.765Z,46.50
2017-07-30T13:43:57.696Z,46.21
2017-07-30T13:44:59.678Z,46.23
2017-07-30T13:46:01.579Z,46.23
2017-07-30T13:47:03.462Z,45.45
2017-07-30T13:48:05.416Z,45.36
2017-07-30T13:49:19.622Z,44.57
2017-07-30T13:50:21.531Z,45.06
2017-07-30T13:51:23.418Z,45.45
2017-07-30T13:52:25.299Z,45.67
2017-07-30T13:53:27.143Z,44.01
2017-07-30T13:54:28.988Z,43.81
2017-07-30T13:55:30.846Z,43.84
2017-07-30T13:56:32.654Z,43.93
2017-07-30T13:57:34.489Z,43.84